Time;durP1;ratioP1;P1;durP2;ratioP2;P2;SDS_P1;SDS_P2;PMS_P1;PMS_P2;Temp;Humidity;BMP_temperature;BMP_pressure;BME280_temperature;BME280_humidity;BME280_pressure;Samples;Min_cycle;Max_cycle;Signal;HPM_P1;HPM_P2
2022/09/18 00:02:17;;;;;;;;;;;;;;;27.61;33.76;99230.88;5036067;28;1119;-33
2022/09/18 00:04:42;;;;;;;;;;;;;;;27.58;33.70;99231.31;5036242;28;1136;-29
2022/09/18 00:07:07;;;;;;;;;;;;;;;27.56;33.73;99232.59;5035816;28;1140;-30
2022/09/18 00:09:32;;;;;;;;;;;;;;;27.57;33.61;99223.44;5042230;28;878;-30
2022/09/18 00:11:59;;;;;;;;;;;;;;;27.62;33.58;99218.19;5050186;28;1175;-31
2022/09/18 00:14:24;;;;;;;;;;;;;;;27.68;33.95;99222.72;5035735;28;1898;-29
2022/09/18 00:16:49;;;;;;;;;;;;;;;27.57;33.41;99223.44;5035588;28;1139;-34
2022/09/18 00:19:15;;;;;;;;;;;;;;;27.62;33.62;99234.41;5035882;28;1258;-34
2022/09/18 00:21:41;;;;;;;;;;;;;;;27.64;34.37;99240.41;5040074;28;936;-30
2022/09/18 00:24:06;;;;;;;;;;;;;;;27.59;33.77;99237.56;5036101;28;1140;-30
2022/09/18 00:26:32;;;;;;;;;;;;;;;27.65;33.81;99238.50;5035548;28;1254;-31
2022/09/18 00:28:57;;;;;;;;;;;;;;;27.60;34.75;99242.72;5035391;28;1190;-29
2022/09/18 00:31:28;;;;;;;;;;;;;;;27.54;33.59;99243.63;5035608;28;1176;-29
2022/09/18 00:33:53;;;;;;;;;;;;;;;27.57;33.85;99250.44;5038905;28;881;-32
2022/09/18 00:36:19;;;;;;;;;;;;;;;27.65;33.68;99252.84;5041198;28;1969;-32
2022/09/18 00:38:45;;;;;;;;;;;;;;;27.52;33.83;99264.63;5046729;28;1218;-31
2022/09/18 00:41:12;;;;;;;;;;;;;;;27.59;33.94;99251.84;5039155;28;1207;-31
2022/09/18 00:43:38;;;;;;;;;;;;;;;27.54;33.21;99249.03;5039157;28;1167;-29
2022/09/18 00:46:17;;;;;;;;;;;;;;;27.47;33.37;99243.69;5052132;28;908;-29
2022/09/18 00:48:46;;;;;;;;;;;;;;;27.41;33.47;99243.75;5038003;28;1220;-29
2022/09/18 00:51:11;;;;;;;;;;;;;;;27.45;33.93;99242.25;5037495;28;1203;-28
2022/09/18 00:53:37;;;;;;;;;;;;;;;27.49;34.63;99240.75;5039403;28;1108;-30
2022/09/18 00:56:02;;;;;;;;;;;;;;;27.51;33.84;99238.63;5037918;28;1894;-31
2022/09/18 00:58:27;;;;;;;;;;;;;;;27.51;33.83;99239.47;5047519;28;1055;-29
2022/09/18 01:00:54;;;;;;;;;;;;;;;27.50;33.84;99237.00;5050156;28;1183;-33
2022/09/18 01:03:19;;;;;;;;;;;;;;;27.51;33.93;99233.25;5039031;28;1175;-31
2022/09/18 01:05:54;;;;;;;;;;;;;;;27.39;33.54;99235.88;5038514;28;1241;-31
2022/09/18 01:08:21;;;;;;;;;;;;;;;27.38;33.77;99235.03;5040053;28;1164;-29
2022/09/18 01:10:50;;;;;;;;;;;;;;;27.37;33.82;99230.69;5038086;28;1231;-33
2022/09/18 01:13:22;;;;;;;;;;;;;;;27.43;33.61;99228.13;5037150;28;1207;-31
2022/09/18 01:16:13;;;;;;;;;;;;;;;27.43;33.60;99228.97;5037620;28;1898;-33
2022/09/18 01:18:42;;;;;;;;;;;;;;;27.42;33.99;99224.63;5017177;28;1308;-29
2022/09/18 01:21:19;;;;;;;;;;;;;;;27.40;33.70;99234.81;5050124;28;1107;-29
2022/09/18 01:24:05;;;;;;;;;;;;;;;27.38;33.73;99231.50;5037139;28;1144;-30
2022/09/18 01:26:33;;;;;;;;;;;;;;;27.37;33.81;99235.25;5038270;28;1187;-33
2022/09/18 01:29:10;;;;;;;;;;;;;;;27.45;33.80;99243.06;5043844;28;1405;-29
2022/09/18 01:31:55;;;;;;;;;;;;;;;27.43;33.96;99234.34;5038528;28;1151;-30
2022/09/18 01:34:39;;;;;;;;;;;;;;;27.43;33.63;99234.34;5050338;28;1704;-29
2022/09/18 01:37:09;;;;;;;;;;;;;;;27.33;33.61;99240.25;5038135;28;1250;-29
2022/09/18 01:39:39;;;;;;;;;;;;;;;27.39;33.60;99233.97;5036589;28;1152;-31
2022/09/18 01:42:05;;;;;;;;;;;;;;;27.35;33.90;99234.66;5036936;28;1270;-32
2022/09/18 01:44:30;;;;;;;;;;;;;;;27.48;33.87;99229.13;5037750;28;1156;-28
2022/09/18 01:46:56;;;;;;;;;;;;;;;27.41;33.60;99224.84;5044268;28;1195;-33
2022/09/18 01:49:22;;;;;;;;;;;;;;;27.51;33.62;99235.94;5046317;28;1127;-29
2022/09/18 01:51:55;;;;;;;;;;;;;;;27.46;33.68;99233.09;5050782;28;1129;-32
2022/09/18 01:54:24;;;;;;;;;;;;;;;27.39;33.34;99225.88;5036717;28;1176;-29
2022/09/18 01:56:50;;;;;;;;;;;;;;;27.36;33.47;99233.63;5040031;28;1219;-29
2022/09/18 01:59:21;;;;;;;;;;;;;;;27.33;33.48;99228.63;5047584;28;1124;-32
2022/09/18 02:01:47;;;;;;;;;;;;;;;27.42;33.42;99232.72;5036764;28;1156;-29
2022/09/18 02:04:14;;;;;;;;;;;;;;;27.42;33.61;99230.03;5036408;28;1180;-30
2022/09/18 02:06:45;;;;;;;;;;;;;;;27.35;33.32;99242.75;5037897;28;1124;-29
2022/09/18 02:09:10;;;;;;;;;;;;;;;27.33;33.82;99228.63;5041091;28;1092;-32
2022/09/18 02:11:37;;;;;;;;;;;;;;;27.49;34.41;99233.47;5044520;28;1214;-31
2022/09/18 02:14:06;;;;;;;;;;;;;;;27.41;33.83;99227.53;5037707;28;1207;-33
2022/09/18 02:16:42;;;;;;;;;;;;;;;27.33;33.70;99240.25;5037459;28;1951;-30
2022/09/18 02:19:18;;;;;;;;;;;;;;;27.36;33.54;99236.31;5035643;28;1212;-31
2022/09/18 02:21:43;;;;;;;;;;;;;;;27.33;33.54;99239.44;5043967;28;1177;-30
2022/09/18 02:24:09;;;;;;;;;;;;;;;27.33;33.67;99244.84;5039777;28;1151;-31
2022/09/18 02:26:34;;;;;;;;;;;;;;;27.29;33.42;99246.34;5036143;28;1121;-34
2022/09/18 02:28:59;;;;;;;;;;;;;;;27.25;33.55;99245.94;5035837;28;1211;-30
2022/09/18 02:31:25;;;;;;;;;;;;;;;27.43;34.72;99250.56;5035890;28;1148;-30
2022/09/18 02:33:52;;;;;;;;;;;;;;;27.37;33.65;99251.47;5037238;28;1178;-29
2022/09/18 02:36:36;;;;;;;;;;;;;;;27.47;34.03;99249.09;5037372;28;1906;-30
2022/09/18 02:39:07;;;;;;;;;;;;;;;27.40;33.65;99253.72;5048640;28;1166;-31
2022/09/18 02:41:32;;;;;;;;;;;;;;;27.33;33.85;99252.94;5035514;28;1156;-31
2022/09/18 02:43:57;;;;;;;;;;;;;;;27.35;33.77;99246.28;5037078;28;1147;-32
2022/09/18 02:46:22;;;;;;;;;;;;;;;27.30;33.67;99256.91;5050887;28;1214;-32
2022/09/18 02:48:51;;;;;;;;;;;;;;;27.27;33.35;99249.25;5036598;28;1326;-32
2022/09/18 02:51:25;;;;;;;;;;;;;;;27.21;33.50;99260.94;5036616;28;1179;-29
2022/09/18 02:53:59;;;;;;;;;;;;;;;26.98;34.69;99265.84;5044887;28;1266;-33
2022/09/18 02:56:33;;;;;;;;;;;;;;;26.37;36.06;99265.34;5037043;28;1901;-29
2022/09/18 02:59:01;;;;;;;;;;;;;;;26.15;36.50;99268.31;5046314;28;922;-29
2022/09/18 03:01:27;;;;;;;;;;;;;;;25.90;40.52;99264.44;5036007;28;1226;-29
2022/09/18 03:03:52;;;;;;;;;;;;;;;25.94;42.93;99272.09;5035529;28;1173;-34
2022/09/18 03:06:17;;;;;;;;;;;;;;;26.04;42.33;99276.00;5036525;28;1199;-32
2022/09/18 03:08:43;;;;;;;;;;;;;;;25.90;43.83;99282.47;5036764;28;1191;-29
2022/09/18 03:11:08;;;;;;;;;;;;;;;25.03;46.38;99286.81;5044957;28;973;-32
2022/09/18 03:13:33;;;;;;;;;;;;;;;24.66;47.18;99285.25;5036464;28;1179;-32
2022/09/18 03:15:59;;;;;;;;;;;;;;;24.91;45.31;99283.88;5036615;28;1959;-31
2022/09/18 03:18:24;;;;;;;;;;;;;;;25.21;44.77;99290.78;5036462;28;1159;-33
2022/09/18 03:20:49;;;;;;;;;;;;;;;25.47;45.03;99294.50;5036401;28;1297;-29
2022/09/18 03:23:15;;;;;;;;;;;;;;;25.42;44.80;99295.13;5043478;28;921;-34
2022/09/18 03:25:40;;;;;;;;;;;;;;;25.47;44.33;99289.97;5035995;28;1144;-31
2022/09/18 03:28:05;;;;;;;;;;;;;;;25.34;43.67;99301.53;5051198;28;1306;-31
2022/09/18 03:30:30;;;;;;;;;;;;;;;25.40;42.47;99319.56;5036490;28;1207;-33
2022/09/18 03:32:56;;;;;;;;;;;;;;;25.37;44.52;99338.00;5036249;28;1108;-31
2022/09/18 03:35:21;;;;;;;;;;;;;;;25.26;43.88;99347.47;5044764;28;1942;-31
2022/09/18 03:37:47;;;;;;;;;;;;;;;25.23;44.36;99355.97;5036577;28;1163;-32
2022/09/18 03:40:12;;;;;;;;;;;;;;;24.99;45.50;99367.09;5038913;28;1528;-31
2022/09/18 03:42:38;;;;;;;;;;;;;;;24.73;45.90;99367.78;5056210;28;1163;-29
2022/09/18 03:45:03;;;;;;;;;;;;;;;24.19;46.57;99381.81;5053670;28;1197;-30
2022/09/18 03:47:29;;;;;;;;;;;;;;;23.91;47.76;99396.00;5045898;28;922;-31
2022/09/18 03:49:54;;;;;;;;;;;;;;;23.75;47.88;99403.34;5036621;28;1182;-30
2022/09/18 03:52:19;;;;;;;;;;;;;;;24.36;46.61;99414.56;5036240;28;1139;-31
2022/09/18 03:54:44;;;;;;;;;;;;;;;24.58;46.04;99415.31;5035734;28;1957;-34
2022/09/18 03:57:10;;;;;;;;;;;;;;;24.88;44.89;99424.97;5045579;28;1223;-30
2022/09/18 03:59:35;;;;;;;;;;;;;;;25.53;42.77;99426.44;5047891;28;1367;-32
2022/09/18 04:02:01;;;;;;;;;;;;;;;25.92;41.14;99432.09;5050819;28;1346;-29
2022/09/18 04:04:26;;;;;;;;;;;;;;;25.98;40.61;99421.50;5054749;28;1048;-29
2022/09/18 04:06:51;;;;;;;;;;;;;;;25.93;40.22;99427.53;5037473;28;1206;-33
2022/09/18 04:09:17;;;;;;;;;;;;;;;25.98;39.81;99425.06;5035845;28;1198;-31
2022/09/18 04:11:42;;;;;;;;;;;;;;;26.03;38.77;99430.66;5040097;28;926;-32
2022/09/18 04:14:07;;;;;;;;;;;;;;;26.10;39.34;99427.94;5042777;28;2365;-32
2022/09/18 04:16:33;;;;;;;;;;;;;;;26.19;39.35;99433.97;5051290;28;2212;-29
2022/09/18 04:18:58;;;;;;;;;;;;;;;26.24;39.06;99438.72;5055607;28;1986;-29
2022/09/18 04:21:23;;;;;;;;;;;;;;;26.26;38.92;99437.47;5057311;28;2170;-30
2022/09/18 04:23:49;;;;;;;;;;;;;;;26.35;38.86;99446.19;5055391;28;1804;-32
2022/09/18 04:26:14;;;;;;;;;;;;;;;26.23;39.08;99459.44;5042419;28;2250;-33
2022/09/18 04:28:39;;;;;;;;;;;;;;;26.21;39.10;99466.91;5049881;28;2139;-33
2022/09/18 04:31:05;;;;;;;;;;;;;;;26.21;39.11;99479.56;5039190;28;1171;-30
2022/09/18 04:33:30;;;;;;;;;;;;;;;26.23;39.32;99499.03;5039597;28;1186;-32
2022/09/18 04:35:56;;;;;;;;;;;;;;;26.25;39.59;99505.91;5052071;28;1910;-32
2022/09/18 04:38:26;;;;;;;;;;;;;;;26.36;39.65;99519.84;5039291;28;1104;-30
2022/09/18 04:40:55;;;;;;;;;;;;;;;26.40;39.79;99530.00;5039154;28;1179;-29
2022/09/18 04:43:20;;;;;;;;;;;;;;;26.49;39.49;99540.56;5039113;28;1194;-31
2022/09/18 04:45:46;;;;;;;;;;;;;;;26.60;38.99;99553.41;5048304;28;1168;-31
2022/09/18 04:48:12;;;;;;;;;;;;;;;26.73;38.93;99559.81;5044254;28;958;-31
2022/09/18 04:50:37;;;;;;;;;;;;;;;26.70;39.43;99562.94;5051467;28;1147;-32
2022/09/18 04:53:02;;;;;;;;;;;;;;;26.78;39.54;99584.31;5038642;28;1167;-32
2022/09/18 04:55:28;;;;;;;;;;;;;;;26.86;39.63;99588.69;5038373;28;1906;-29
2022/09/18 04:57:53;;;;;;;;;;;;;;;26.66;39.68;99597.59;5039080;28;2225;-31
2022/09/18 05:00:19;;;;;;;;;;;;;;;26.51;39.71;99595.09;5041208;28;1062;-32
2022/09/18 05:02:44;;;;;;;;;;;;;;;26.58;39.67;99603.19;5054033;28;1219;-32
2022/09/18 05:05:09;;;;;;;;;;;;;;;26.54;40.42;99613.59;5058010;28;1227;-29
2022/09/18 05:07:35;;;;;;;;;;;;;;;26.57;39.99;99613.16;5058282;28;1182;-35
2022/09/18 05:10:00;;;;;;;;;;;;;;;26.60;39.77;99623.53;5058277;28;1211;-31
2022/09/18 05:12:26;;;;;;;;;;;;;;;26.58;39.68;99619.38;5039906;28;1120;-32
2022/09/18 05:14:51;;;;;;;;;;;;;;;26.53;39.79;99626.22;5038015;28;1894;-29
2022/09/18 05:17:16;;;;;;;;;;;;;;;26.61;39.64;99638.69;5037752;28;1080;-29
2022/09/18 05:19:42;;;;;;;;;;;;;;;26.66;39.36;99635.34;5037841;28;1272;-30
2022/09/18 05:22:07;;;;;;;;;;;;;;;26.63;39.42;99636.59;5038029;28;1309;-29
2022/09/18 05:24:32;;;;;;;;;;;;;;;26.64;39.73;99634.75;5037869;28;1184;-29
2022/09/18 05:26:58;;;;;;;;;;;;;;;26.65;39.59;99631.00;5037752;28;1215;-31
2022/09/18 05:29:23;;;;;;;;;;;;;;;26.67;39.46;99636.19;5050147;28;2259;-31
2022/09/18 05:31:49;;;;;;;;;;;;;;;26.68;39.98;99645.94;5057676;28;1242;-31
2022/09/18 05:34:14;;;;;;;;;;;;;;;26.74;39.73;99626.25;5056785;28;1183;-29
2022/09/18 05:36:39;;;;;;;;;;;;;;;26.72;39.45;99631.84;5037392;28;1909;-32
2022/09/18 05:39:04;;;;;;;;;;;;;;;26.75;39.40;99630.59;5037797;28;1231;-31
2022/09/18 05:41:30;;;;;;;;;;;;;;;26.72;39.42;99628.31;5037530;28;1222;-33
2022/09/18 05:43:55;;;;;;;;;;;;;;;26.74;39.35;99639.72;5037154;28;1358;-30
2022/09/18 05:46:20;;;;;;;;;;;;;;;26.73;39.48;99635.34;5051750;28;1163;-29
2022/09/18 05:48:49;;;;;;;;;;;;;;;26.74;39.53;99634.34;5039148;28;1258;-30
2022/09/18 05:51:14;;;;;;;;;;;;;;;26.76;39.15;99648.41;5037199;28;1270;-32
2022/09/18 05:53:41;;;;;;;;;;;;;;;26.85;39.30;99652.59;5037255;28;1231;-29
2022/09/18 05:56:06;;;;;;;;;;;;;;;26.85;39.07;99668.78;5037058;28;1898;-31
2022/09/18 05:58:31;;;;;;;;;;;;;;;26.81;39.16;99664.81;5038621;28;1828;-32
2022/09/18 06:00:58;;;;;;;;;;;;;;;26.91;39.16;99667.09;5037267;28;1186;-31
2022/09/18 06:03:23;;;;;;;;;;;;;;;26.90;39.12;99678.94;5037953;28;1187;-29
2022/09/18 06:05:52;;;;;;;;;;;;;;;27.00;38.98;99673.97;5037233;28;1282;-32
2022/09/18 06:08:17;;;;;;;;;;;;;;;26.97;39.31;99674.38;5036796;28;1128;-28
2022/09/18 06:10:42;;;;;;;;;;;;;;;26.92;39.67;99681.44;5037649;28;1204;-31
2022/09/18 06:13:08;;;;;;;;;;;;;;;26.90;39.39;99682.47;5037191;28;1238;-32
2022/09/18 06:15:34;;;;;;;;;;;;;;;26.88;39.84;99676.47;5037098;28;1897;-29
2022/09/18 06:17:59;;;;;;;;;;;;;;;26.86;39.60;99678.53;5036037;28;1144;-33
2022/09/18 06:20:24;;;;;;;;;;;;;;;26.99;38.53;99685.78;5036875;28;1120;-30
2022/09/18 06:22:50;;;;;;;;;;;;;;;27.04;38.80;99700.56;5038224;28;1131;-30
2022/09/18 06:25:18;;;;;;;;;;;;;;;27.08;38.72;99702.63;5036764;28;1219;-31
2022/09/18 06:27:43;;;;;;;;;;;;;;;27.02;39.17;99703.47;5039425;28;1282;-31
2022/09/18 06:30:08;;;;;;;;;;;;;;;26.99;39.15;99711.97;5039593;28;1709;-30
2022/09/18 06:32:34;;;;;;;;;;;;;;;27.12;39.08;99706.59;5036640;28;1242;-31
2022/09/18 06:34:59;;;;;;;;;;;;;;;27.02;38.90;99707.03;5036194;28;1902;-29
2022/09/18 06:37:24;;;;;;;;;;;;;;;27.13;38.37;99710.09;5036999;28;1219;-29
2022/09/18 06:39:50;;;;;;;;;;;;;;;27.04;38.71;99735.66;5036943;28;1167;-30
2022/09/18 06:42:15;;;;;;;;;;;;;;;27.11;38.52;99731.09;5036523;28;1132;-32
2022/09/18 06:44:41;;;;;;;;;;;;;;;27.10;38.36;99734.81;5036963;28;1124;-29
2022/09/18 06:47:06;;;;;;;;;;;;;;;27.07;38.87;99725.28;5052760;28;1103;-29
2022/09/18 06:49:31;;;;;;;;;;;;;;;27.06;38.20;99736.28;5043813;28;1147;-30
2022/09/18 06:51:56;;;;;;;;;;;;;;;27.16;38.17;99725.88;5036075;28;1068;-33
2022/09/18 06:54:22;;;;;;;;;;;;;;;27.16;38.23;99738.56;5035846;28;1251;-31
2022/09/18 06:56:48;;;;;;;;;;;;;;;27.12;38.47;99747.09;5036262;28;1898;-30
2022/09/18 06:59:13;;;;;;;;;;;;;;;27.09;38.60;99754.78;5038894;28;1811;-31
2022/09/18 07:01:38;;;;;;;;;;;;;;;27.22;38.29;99770.13;5036235;28;1187;-30
2022/09/18 07:04:04;;;;;;;;;;;;;;;27.30;38.47;99769.91;5036138;28;1163;-35
2022/09/18 07:06:29;;;;;;;;;;;;;;;27.21;38.28;99781.97;5036624;28;1198;-29
2022/09/18 07:08:54;;;;;;;;;;;;;;;27.29;37.77;99794.44;5036342;28;1159;-31
2022/09/18 07:11:19;;;;;;;;;;;;;;;27.24;38.09;99789.66;5039266;28;1320;-32
2022/09/18 07:13:46;;;;;;;;;;;;;;;27.23;38.38;99793.38;5045327;28;1285;-29
2022/09/18 07:16:12;;;;;;;;;;;;;;;27.27;39.00;99802.75;5064120;28;1890;-31
2022/09/18 07:18:37;;;;;;;;;;;;;;;27.32;38.47;99805.66;5036050;28;1194;-32
2022/09/18 07:21:03;;;;;;;;;;;;;;;27.33;38.07;99792.97;5035945;28;1325;-30
2022/09/18 07:23:30;;;;;;;;;;;;;;;27.36;38.30;99787.16;5039579;28;1128;-30
2022/09/18 07:25:57;;;;;;;;;;;;;;;27.43;37.85;99793.38;5042872;28;1139;-31
2022/09/18 07:28:23;;;;;;;;;;;;;;;27.50;37.43;99778.00;5036128;28;2245;-31
2022/09/18 07:30:48;;;;;;;;;;;;;;;27.53;37.96;99765.13;5035895;28;1187;-32
2022/09/18 07:33:13;;;;;;;;;;;;;;;27.43;37.55;99758.28;5036443;28;1136;-30
2022/09/18 07:35:38;;;;;;;;;;;;;;;27.51;37.37;99774.25;5040161;28;1963;-31
2022/09/18 07:38:08;;;;;;;;;;;;;;;27.55;37.52;99768.44;5040696;28;1103;-31
2022/09/18 07:40:33;;;;;;;;;;;;;;;27.63;37.65;99766.34;5035790;28;1210;-31
2022/09/18 07:42:59;;;;;;;;;;;;;;;27.65;37.85;99789.63;5036121;28;1065;-31
2022/09/18 07:45:24;;;;;;;;;;;;;;;27.63;38.54;99798.78;5042644;28;1167;-35
2022/09/18 07:47:50;;;;;;;;;;;;;;;27.55;37.69;99804.41;5051615;28;1179;-31
2022/09/18 07:50:15;;;;;;;;;;;;;;;27.63;37.56;99827.66;5041547;28;1264;-31
2022/09/18 07:52:47;;;;;;;;;;;;;;;27.68;37.95;99819.78;5039873;28;1194;-32
2022/09/18 07:55:13;;;;;;;;;;;;;;;27.70;38.08;99819.56;5039843;28;2018;-31
2022/09/18 07:57:38;;;;;;;;;;;;;;;27.67;38.48;99830.78;5049707;28;1084;-29
2022/09/18 08:00:05;;;;;;;;;;;;;;;27.70;38.05;99831.22;5044913;28;1807;-31
2022/09/18 08:02:30;;;;;;;;;;;;;;;27.71;38.42;99830.16;5040008;28;1079;-30
2022/09/18 08:04:56;;;;;;;;;;;;;;;27.69;38.04;99824.16;5039838;28;1160;-31
2022/09/18 08:07:23;;;;;;;;;;;;;;;27.59;38.14;99843.44;5039833;28;1116;-29
2022/09/18 08:09:48;;;;;;;;;;;;;;;27.71;38.01;99842.88;5039461;28;1151;-35
2022/09/18 08:12:13;;;;;;;;;;;;;;;27.69;38.55;99844.94;5042550;28;1134;-30
2022/09/18 08:14:39;;;;;;;;;;;;;;;27.71;39.08;99832.06;5039561;28;1898;-31
2022/09/18 08:17:04;;;;;;;;;;;;;;;27.73;39.36;99840.75;5039629;28;1096;-29
2022/09/18 08:19:29;;;;;;;;;;;;;;;27.80;38.36;99833.50;5039237;28;1236;-31
2022/09/18 08:21:55;;;;;;;;;;;;;;;27.84;39.12;99832.00;5039922;28;1197;-31
2022/09/18 08:24:20;;;;;;;;;;;;;;;27.84;39.89;99825.81;5046001;28;1155;-33
2022/09/18 08:26:45;;;;;;;;;;;;;;;27.78;39.15;99832.06;5048332;28;1112;-31
2022/09/18 08:29:17;;;;;;;;;;;;;;;27.91;39.25;99853.63;5039611;28;2396;-31
2022/09/18 08:31:43;;;;;;;;;;;;;;;27.96;39.57;99845.72;5049013;28;1623;-31
2022/09/18 08:34:08;;;;;;;;;;;;;;;27.96;40.01;99834.91;5043107;28;1092;-30
2022/09/18 08:36:33;;;;;;;;;;;;;;;27.94;39.10;99855.94;5039056;28;1958;-31
2022/09/18 08:38:59;;;;;;;;;;;;;;;27.96;39.15;99858.44;5039291;28;1080;-30
2022/09/18 08:41:33;;;;;;;;;;;;;;;28.01;40.04;99849.69;5038972;28;1140;-33
2022/09/18 08:44:05;;;;;;;;;;;;;;;28.03;39.56;99847.59;5038504;28;1108;-30
2022/09/18 08:46:40;;;;;;;;;;;;;;;27.96;38.36;99861.13;5052873;28;1156;-31
2022/09/18 08:49:08;;;;;;;;;;;;;;;28.01;39.63;99868.59;5041584;28;1055;-30
2022/09/18 08:51:36;;;;;;;;;;;;;;;28.08;40.10;99856.72;5038448;28;1183;-34
2022/09/18 08:54:21;;;;;;;;;;;;;;;28.12;39.28;99865.25;5053072;28;1220;-31
2022/09/18 08:56:46;;;;;;;;;;;;;;;28.14;39.46;99876.69;5044893;28;1897;-33
2022/09/18 08:59:16;;;;;;;;;;;;;;;28.09;39.48;99866.50;5040697;28;2380;-30
2022/09/18 09:02:03;;;;;;;;;;;;;;;28.09;40.12;99885.41;5038594;28;942;-33
2022/09/18 09:04:28;;;;;;;;;;;;;;;28.15;39.34;99869.41;5037149;28;1124;-29
2022/09/18 09:06:58;;;;;;;;;;;;;;;28.16;40.24;99879.19;5038418;28;1203;-30
2022/09/18 09:09:29;;;;;;;;;;;;;;;28.13;40.05;99877.72;5037207;28;1094;-30
2022/09/18 09:12:00;;;;;;;;;;;;;;;28.14;39.16;99884.81;5039012;28;1206;-30
2022/09/18 09:14:44;;;;;;;;;;;;;;;28.15;39.50;99881.03;5051117;28;1099;-32
2022/09/18 09:17:16;;;;;;;;;;;;;;;28.06;39.36;99877.72;5038244;28;1093;-33
2022/09/18 09:19:50;;;;;;;;;;;;;;;28.21;39.76;99868.56;5036882;28;1419;-33
2022/09/18 09:22:16;;;;;;;;;;;;;;;28.20;39.28;99865.03;5038714;28;1156;-30
2022/09/18 09:24:42;;;;;;;;;;;;;;;28.27;38.92;99864.16;5044218;28;1009;-30
2022/09/18 09:27:21;;;;;;;;;;;;;;;28.27;39.43;99872.28;5044151;28;1167;-30
2022/09/18 09:29:47;;;;;;;;;;;;;;;28.21;39.48;99872.09;5046196;28;2568;-30
2022/09/18 09:32:18;;;;;;;;;;;;;;;28.00;39.17;99873.16;5043420;28;1120;-32
2022/09/18 09:34:45;;;;;;;;;;;;;;;27.96;39.24;99878.16;5044502;28;1973;-31
2022/09/18 09:37:11;;;;;;;;;;;;;;;27.81;39.39;99869.47;5054229;28;1115;-30
2022/09/18 09:39:57;;;;;;;;;;;;;;;27.70;40.26;99862.81;5037755;28;1171;-29
2022/09/18 09:42:27;;;;;;;;;;;;;;;28.29;39.31;99867.50;5055896;28;1258;-33
2022/09/18 09:44:58;;;;;;;;;;;;;;;28.47;38.64;99864.13;5062353;28;1130;-28
2022/09/18 09:47:24;;;;;;;;;;;;;;;28.51;38.01;99849.13;5048461;28;1123;-30
2022/09/18 09:49:49;;;;;;;;;;;;;;;28.53;37.71;99873.28;5047678;28;1227;-30
2022/09/18 09:52:21;;;;;;;;;;;;;;;28.57;38.09;99861.81;5036470;28;1032;-32
2022/09/18 09:54:48;;;;;;;;;;;;;;;28.56;37.27;99860.13;5038069;28;1961;-30
2022/09/18 09:57:16;;;;;;;;;;;;;;;28.58;37.26;99863.47;5036144;28;1243;-29
2022/09/18 10:00:08;;;;;;;;;;;;;;;28.54;37.83;99859.53;5038147;28;1888;-28
2022/09/18 10:02:36;;;;;;;;;;;;;;;28.47;36.06;99862.28;5038356;28;1821;-31
2022/09/18 10:05:10;;;;;;;;;;;;;;;28.53;37.58;99857.88;5036000;28;1148;-32
2022/09/18 10:07:37;;;;;;;;;;;;;;;28.47;37.99;99869.56;5037630;28;1167;-33
2022/09/18 10:10:13;;;;;;;;;;;;;;;28.42;36.65;99856.66;5035833;28;1188;-28
2022/09/18 10:12:38;;;;;;;;;;;;;;;28.43;36.79;99854.78;5039729;28;1179;-30
2022/09/18 10:15:16;;;;;;;;;;;;;;;28.50;37.67;99860.16;5038775;28;1906;-28
2022/09/18 10:17:41;;;;;;;;;;;;;;;28.50;37.54;99855.59;5036410;28;1117;-30
2022/09/18 10:20:07;;;;;;;;;;;;;;;28.52;37.18;99839.97;5035908;28;1171;-29
2022/09/18 10:22:32;;;;;;;;;;;;;;;28.52;37.30;99858.09;5035806;28;1161;-31
2022/09/18 10:24:59;;;;;;;;;;;;;;;28.48;37.09;99860.38;5039016;28;1183;-30
2022/09/18 10:27:25;;;;;;;;;;;;;;;27.92;33.63;99858.00;5042225;28;1191;-31
2022/09/18 10:29:51;;;;;;;;;;;;;;;28.22;34.67;99871.06;5054706;28;2333;-30
2022/09/18 10:32:35;;;;;;;;;;;;;;;28.41;36.03;99871.22;5056948;28;1335;-30
2022/09/18 10:35:13;;;;;;;;;;;;;;;28.44;35.92;99862.69;5056604;28;1902;-30
2022/09/18 10:37:42;;;;;;;;;;;;;;;28.49;36.54;99881.00;5047825;28;1261;-33
2022/09/18 10:40:26;;;;;;;;;;;;;;;28.42;36.45;99875.59;5036581;28;1227;-30
2022/09/18 10:42:52;;;;;;;;;;;;;;;28.48;36.21;99877.44;5036575;28;1261;-33
2022/09/18 10:45:25;;;;;;;;;;;;;;;28.48;36.50;99865.78;5042248;28;1219;-29
2022/09/18 10:47:50;;;;;;;;;;;;;;;28.57;36.01;99871.81;5054868;28;1243;-30
2022/09/18 10:50:16;;;;;;;;;;;;;;;28.58;36.76;99876.16;5041992;28;1367;-30
2022/09/18 10:52:46;;;;;;;;;;;;;;;28.57;36.98;99875.34;5035119;28;1212;-29
2022/09/18 10:55:18;;;;;;;;;;;;;;;28.61;36.61;99873.03;5034898;28;1961;-31
2022/09/18 10:57:49;;;;;;;;;;;;;;;28.60;36.51;99901.97;5035239;28;1294;-31
2022/09/18 11:00:18;;;;;;;;;;;;;;;28.57;36.68;99898.84;5036024;28;1168;-31
2022/09/18 11:02:44;;;;;;;;;;;;;;;28.58;37.23;99901.34;5037001;28;1291;-32
2022/09/18 11:05:19;;;;;;;;;;;;;;;28.67;37.16;99904.66;5036159;28;1306;-30
2022/09/18 11:07:48;;;;;;;;;;;;;;;28.62;37.49;99919.84;5036204;28;1231;-28
2022/09/18 11:10:15;;;;;;;;;;;;;;;28.66;37.13;99913.78;5035198;28;1247;-30
2022/09/18 11:12:43;;;;;;;;;;;;;;;28.63;37.10;99898.00;5034728;28;1283;-32
2022/09/18 11:15:13;;;;;;;;;;;;;;;28.73;37.17;99932.72;5037055;28;1910;-29
2022/09/18 11:17:41;;;;;;;;;;;;;;;28.61;37.04;99946.09;5035084;28;1250;-29
2022/09/18 11:20:07;;;;;;;;;;;;;;;28.54;37.89;99940.72;5035642;28;1313;-28
2022/09/18 11:22:33;;;;;;;;;;;;;;;28.55;37.33;99945.06;5035381;28;1199;-28
2022/09/18 11:25:28;;;;;;;;;;;;;;;28.55;37.50;99947.78;5036517;28;1250;-29
2022/09/18 11:27:54;;;;;;;;;;;;;;;28.53;37.50;99927.41;5034535;28;2456;-29
2022/09/18 11:30:24;;;;;;;;;;;;;;;28.61;37.09;99921.75;5055756;28;1218;-31
2022/09/18 11:32:51;;;;;;;;;;;;;;;28.66;36.82;99942.75;5055440;28;1219;-29
2022/09/18 11:35:17;;;;;;;;;;;;;;;28.62;37.68;99939.63;5055707;28;1902;-30
2022/09/18 11:37:43;;;;;;;;;;;;;;;28.55;38.23;99936.94;5049754;28;1255;-30
2022/09/18 11:40:24;;;;;;;;;;;;;;;28.57;37.98;99947.56;5034751;28;1239;-31
2022/09/18 11:42:51;;;;;;;;;;;;;;;28.52;38.08;99940.09;5035829;28;1239;-31
2022/09/18 11:45:22;;;;;;;;;;;;;;;28.59;37.78;99951.69;5037385;28;1219;-27
2022/09/18 11:47:53;;;;;;;;;;;;;;;28.62;37.89;99942.34;5034232;28;1295;-27
2022/09/18 11:50:19;;;;;;;;;;;;;;;28.60;38.05;99925.47;5034744;28;1177;-28
2022/09/18 11:53:04;;;;;;;;;;;;;;;28.68;37.35;99943.34;5034342;28;1239;-28
2022/09/18 11:55:48;;;;;;;;;;;;;;;28.65;37.32;99951.91;5034810;28;1894;-28
2022/09/18 11:58:13;;;;;;;;;;;;;;;28.63;37.45;99945.88;5036403;28;2440;-31
2022/09/18 12:00:40;;;;;;;;;;;;;;;28.54;37.41;99961.50;5035674;28;1120;-28
2022/09/18 12:03:12;;;;;;;;;;;;;;;28.48;37.38;99938.81;5035533;28;1122;-29
2022/09/18 12:05:37;;;;;;;;;;;;;;;28.39;37.88;99949.06;5035769;28;1072;-32
2022/09/18 12:08:15;;;;;;;;;;;;;;;28.41;37.66;99952.38;5035632;28;1147;-30
2022/09/18 12:10:49;;;;;;;;;;;;;;;28.46;38.03;99930.13;5035688;28;1155;-28
2022/09/18 12:13:36;;;;;;;;;;;;;;;28.54;37.99;99937.16;5035764;28;1140;-33
2022/09/18 12:16:09;;;;;;;;;;;;;;;28.55;36.96;99939.66;5044897;28;1965;-30
2022/09/18 12:18:36;;;;;;;;;;;;;;;28.69;37.38;99918.81;5034631;28;1164;-28
2022/09/18 12:21:02;;;;;;;;;;;;;;;28.63;37.19;99946.69;5034318;28;1183;-31
2022/09/18 12:23:28;;;;;;;;;;;;;;;28.66;37.83;99938.16;5034483;28;1149;-28
2022/09/18 12:26:05;;;;;;;;;;;;;;;28.60;37.43;99941.72;5038528;28;1406;-30
2022/09/18 12:28:33;;;;;;;;;;;;;;;28.53;37.05;99944.44;5041132;28;1853;-32
2022/09/18 12:31:14;;;;;;;;;;;;;;;28.68;37.66;99929.81;5035582;28;1164;-31
2022/09/18 12:33:42;;;;;;;;;;;;;;;28.67;37.69;99947.09;5045833;28;1310;-29
2022/09/18 12:36:07;;;;;;;;;;;;;;;28.57;37.81;99936.72;5052557;28;1963;-30
2022/09/18 12:38:36;;;;;;;;;;;;;;;28.63;37.10;99944.00;5052771;28;900;-30
2022/09/18 12:41:01;;;;;;;;;;;;;;;28.67;36.94;99936.28;5044090;28;1140;-33
2022/09/18 12:43:32;;;;;;;;;;;;;;;28.77;36.65;99942.09;5048013;28;1178;-30
2022/09/18 12:46:02;;;;;;;;;;;;;;;28.78;36.55;99957.25;5048337;28;1113;-29
2022/09/18 12:48:48;;;;;;;;;;;;;;;28.68;37.52;99960.44;5037326;28;1291;-30
2022/09/18 12:51:19;;;;;;;;;;;;;;;28.69;37.88;99964.81;5043448;28;1196;-33
2022/09/18 12:54:20;;;;;;;;;;;;;;;28.13;38.05;99866.09;5042477;28;1281;-30
2022/09/18 12:56:45;;;;;;;;;;;;;;;28.68;37.85;99959.59;5011969;28;1890;-30
2022/09/18 12:59:16;;;;;;;;;;;;;;;28.71;37.09;99960.00;5033742;28;2388;-29
2022/09/18 13:01:52;;;;;;;;;;;;;;;28.66;37.83;99954.38;5038393;28;1383;-30
2022/09/18 13:04:23;;;;;;;;;;;;;;;28.58;37.34;99955.47;5055044;28;1152;-33